createdAt,value
2023-05-04T00:01:11.507Z,21.13
2023-05-04T00:06:13.349Z,14.98
2023-05-04T00:11:15.182Z,14.55
2023-05-04T00:16:17.073Z,11.75
2023-05-04T00:21:18.859Z,10.70
2023-05-04T00:26:21.216Z,8.43
2023-05-04T00:31:23.734Z,9.38
2023-05-04T00:36:25.869Z,16.92
2023-05-04T00:41:27.765Z,9.70
2023-05-04T00:46:30.099Z,16.33
2023-05-04T00:51:33.421Z,10.20
2023-05-04T00:56:41.232Z,9.68
2023-05-04T01:01:43.195Z,10.88
2023-05-04T01:06:52.796Z,7.57
2023-05-04T01:12:08.343Z,8.40
2023-05-04T01:17:11.952Z,10.88
2023-05-04T01:22:13.876Z,10.30
2023-05-04T01:27:23.319Z,11.35
2023-05-04T01:32:28.535Z,9.90
2023-05-04T01:37:33.060Z,12.52
2023-05-04T01:42:35.267Z,11.55
2023-05-04T01:47:37.075Z,11.25
2023-05-04T01:52:40.000Z,11.65
2023-05-04T01:57:41.790Z,13.55
2023-05-04T02:02:43.918Z,10.30
2023-05-04T02:07:49.524Z,10.80
2023-05-04T02:12:52.305Z,15.95
2023-05-04T02:17:54.241Z,12.68
2023-05-04T02:22:56.271Z,10.75
2023-05-04T02:27:58.055Z,11.18
2023-05-04T02:32:59.914Z,15.30
2023-05-04T02:38:01.808Z,11.48
2023-05-04T02:43:03.636Z,11.68
2023-05-04T02:48:05.645Z,16.83
2023-05-04T02:53:07.447Z,8.00
2023-05-04T02:58:09.268Z,9.20
2023-05-04T03:03:12.546Z,14.43
2023-05-04T03:08:14.386Z,12.02
2023-05-04T03:13:16.799Z,12.48
2023-05-04T03:18:18.849Z,14.07
2023-05-04T03:23:23.028Z,10.38
2023-05-04T03:28:25.184Z,13.48
2023-05-04T03:33:27.043Z,10.82
2023-05-04T03:38:31.831Z,10.88
2023-05-04T03:43:34.360Z,12.40
2023-05-04T03:48:36.564Z,13.02
2023-05-04T03:53:41.736Z,12.15
2023-05-04T03:58:44.721Z,13.48
2023-05-04T04:03:49.722Z,9.60
2023-05-04T04:08:53.962Z,11.60
2023-05-04T04:13:56.029Z,7.78
2023-05-04T04:18:58.248Z,8.68
2023-05-04T04:24:00.000Z,11.80
2023-05-04T04:29:02.338Z,10.80
2023-05-04T04:34:04.189Z,13.02
2023-05-04T04:39:06.401Z,10.07
2023-05-04T04:44:08.185Z,11.10
2023-05-04T04:49:10.258Z,13.07
2023-05-04T04:54:12.022Z,11.48
2023-05-04T04:59:14.159Z,9.23
2023-05-04T05:04:16.100Z,8.85
2023-05-04T05:09:18.000Z,12.52
2023-05-04T05:14:19.749Z,11.10
2023-05-04T05:19:21.520Z,7.88
2023-05-04T05:24:23.453Z,13.73
2023-05-04T05:29:25.473Z,9.13
2023-05-04T05:34:27.388Z,7.25
2023-05-04T05:39:29.397Z,10.95
2023-05-04T05:44:31.384Z,7.50
2023-05-04T05:49:33.285Z,8.35
2023-05-04T05:54:35.426Z,9.93
2023-05-04T05:59:37.236Z,11.70
2023-05-04T06:04:39.396Z,11.30
2023-05-04T06:09:41.494Z,12.68
2023-05-04T06:14:43.722Z,7.95
2023-05-04T06:19:48.096Z,7.85
2023-05-04T06:24:51.368Z,9.15
2023-05-04T06:29:53.158Z,9.15
2023-05-04T06:34:59.530Z,7.90
2023-05-04T06:40:01.316Z,8.05
2023-05-04T06:45:03.332Z,8.80
2023-05-04T06:50:12.173Z,9.98
2023-05-04T06:55:14.032Z,14.77
2023-05-04T07:00:15.984Z,8.70
2023-05-04T07:05:17.881Z,7.38
2023-05-04T07:10:19.735Z,6.07
2023-05-04T07:15:21.706Z,10.80
2023-05-04T07:20:25.858Z,5.97
2023-05-04T07:25:28.957Z,12.07
2023-05-04T07:30:30.846Z,8.68
2023-05-04T07:35:32.627Z,9.55
2023-05-04T07:40:34.533Z,9.07
2023-05-04T07:45:36.394Z,9.75
2023-05-04T07:50:38.244Z,10.00
2023-05-04T07:55:40.144Z,8.35
2023-05-04T08:00:41.980Z,9.05
2023-05-04T08:05:43.846Z,12.45
2023-05-04T08:10:45.730Z,7.45
2023-05-04T08:15:47.559Z,6.60
2023-05-04T08:20:49.446Z,7.32
2023-05-04T08:25:52.458Z,12.35
2023-05-04T08:30:54.288Z,5.95
2023-05-04T08:35:56.350Z,6.38
2023-05-04T08:40:58.234Z,5.40
2023-05-04T08:46:00.236Z,9.48
2023-05-04T08:51:04.513Z,4.15
2023-05-04T08:56:09.610Z,7.85
2023-05-04T09:01:12.399Z,7.68
2023-05-04T09:06:14.870Z,8.77
2023-05-04T09:11:17.252Z,7.10
2023-05-04T09:16:20.185Z,5.95
2023-05-04T09:21:30.220Z,5.82
2023-05-04T09:26:33.079Z,5.38
2023-05-04T09:31:52.478Z,11.73
2023-05-04T09:37:02.124Z,4.05
2023-05-04T09:42:05.861Z,9.27
2023-05-04T09:47:08.547Z,7.38
2023-05-04T09:52:12.060Z,8.05
2023-05-04T09:57:15.557Z,6.18
2023-05-04T10:02:22.494Z,6.15
2023-05-04T10:07:25.302Z,4.78
2023-05-04T10:12:27.686Z,3.70
2023-05-04T10:17:47.351Z,9.43
2023-05-04T10:23:23.674Z,7.90
2023-05-04T10:28:57.085Z,4.95
2023-05-04T10:33:58.929Z,9.43
2023-05-04T10:39:01.504Z,10.30
2023-05-04T10:44:06.734Z,5.20
2023-05-04T10:49:17.913Z,5.65
2023-05-04T10:54:20.067Z,8.85
2023-05-04T10:59:22.033Z,6.22
2023-05-04T11:04:24.624Z,10.88
2023-05-04T11:09:28.284Z,6.15
2023-05-04T11:14:30.404Z,4.88
2023-05-04T11:19:33.603Z,10.18
2023-05-04T11:24:43.553Z,5.72
2023-05-04T11:30:06.048Z,7.78
2023-05-04T11:35:09.794Z,9.32
2023-05-04T11:40:14.204Z,4.60
2023-05-04T11:45:22.186Z,6.80
2023-05-04T11:50:25.328Z,7.05
2023-05-04T11:55:31.998Z,7.68
2023-05-04T12:00:40.390Z,6.30
2023-05-04T12:05:50.936Z,9.10
2023-05-04T12:16:18.449Z,10.68
2023-05-04T12:26:26.282Z,3.53
2023-05-04T12:31:28.765Z,6.82
2023-05-04T12:36:30.780Z,7.15
2023-05-04T12:41:32.699Z,9.80
2023-05-04T12:46:34.630Z,6.05
2023-05-04T12:51:36.884Z,11.10
2023-05-04T12:56:39.865Z,5.43
2023-05-04T13:01:41.806Z,3.45
2023-05-04T13:06:44.287Z,6.28
2023-05-04T13:11:47.631Z,8.65
2023-05-04T13:16:51.040Z,7.60
2023-05-04T13:21:52.937Z,7.60
2023-05-04T13:26:54.759Z,8.48
2023-05-04T13:31:57.391Z,7.95
2023-05-04T13:36:59.246Z,7.07
2023-05-04T13:42:01.032Z,3.83
2023-05-04T13:47:03.732Z,6.28
2023-05-04T13:52:06.240Z,7.25
2023-05-04T13:57:08.037Z,7.00
2023-05-04T14:02:09.861Z,5.82
2023-05-04T14:07:11.676Z,8.25
2023-05-04T14:12:13.452Z,7.35
2023-05-04T14:17:15.244Z,4.00
2023-05-04T14:22:17.277Z,5.15
2023-05-04T14:27:21.112Z,8.20
2023-05-04T14:32:23.247Z,15.50
2023-05-04T14:37:25.077Z,3.78
2023-05-04T14:42:27.020Z,9.77
2023-05-04T14:47:29.167Z,6.75
2023-05-04T14:52:31.195Z,7.95
2023-05-04T14:57:33.086Z,5.93
2023-05-04T15:02:35.890Z,3.17
2023-05-04T15:07:37.893Z,6.45
2023-05-04T15:12:40.248Z,3.55
2023-05-04T15:17:42.266Z,5.30
2023-05-04T15:22:52.220Z,6.18
2023-05-04T15:27:55.522Z,6.00
2023-05-04T15:32:57.528Z,8.55
2023-05-04T15:37:59.761Z,6.78
2023-05-04T15:43:01.544Z,5.22
2023-05-04T15:48:03.628Z,13.80
2023-05-04T15:53:05.452Z,3.25
2023-05-04T15:58:07.724Z,2.80
2023-05-04T16:03:09.567Z,3.88
2023-05-04T16:08:11.617Z,6.90
2023-05-04T16:13:13.511Z,5.20
2023-05-04T16:18:15.512Z,5.28
2023-05-04T16:23:18.460Z,8.30
2023-05-04T16:28:20.366Z,3.65
2023-05-04T16:33:22.179Z,7.38
2023-05-04T16:38:24.164Z,2.35
2023-05-04T16:43:26.114Z,5.60
2023-05-04T16:48:27.926Z,8.07
2023-05-04T16:53:29.696Z,8.27
2023-05-04T16:58:31.479Z,7.00
2023-05-04T17:03:33.293Z,6.00
2023-05-04T17:08:35.114Z,8.90
2023-05-04T17:13:37.296Z,6.45
2023-05-04T17:18:39.077Z,4.30
2023-05-04T17:23:41.129Z,24.73
2023-05-04T17:28:42.953Z,4.90
2023-05-04T17:33:44.751Z,8.73
2023-05-04T17:38:46.574Z,9.30
2023-05-04T17:43:50.244Z,5.72
2023-05-04T17:48:54.588Z,8.82
2023-05-04T17:53:56.501Z,9.20
2023-05-04T17:58:58.783Z,7.60
2023-05-04T18:04:03.295Z,15.43
2023-05-04T18:09:05.145Z,4.90
2023-05-04T18:14:07.190Z,6.93
2023-05-04T18:19:09.112Z,24.27
2023-05-04T18:24:10.918Z,9.38
2023-05-04T18:34:19.427Z,8.93
2023-05-04T18:39:21.201Z,11.07
2023-05-04T18:44:23.091Z,6.97
2023-05-04T18:49:25.044Z,17.60
2023-05-04T18:54:30.163Z,20.27
2023-05-04T18:59:33.972Z,24.38
2023-05-04T19:04:35.821Z,28.52
2023-05-04T19:09:37.948Z,30.90
2023-05-04T19:14:40.672Z,14.40
2023-05-04T19:19:42.480Z,9.60
2023-05-04T19:24:44.546Z,8.73
2023-05-04T19:29:47.242Z,11.73
2023-05-04T19:34:48.985Z,8.00
2023-05-04T19:39:51.050Z,3.38
2023-05-04T19:44:53.285Z,8.52
2023-05-04T19:49:55.301Z,7.43
2023-05-04T19:54:57.092Z,10.02
2023-05-04T19:59:59.324Z,4.05
2023-05-04T20:05:01.192Z,9.63
2023-05-04T20:10:03.469Z,12.20
2023-05-04T20:15:06.666Z,3.47
2023-05-04T20:20:09.831Z,7.03
2023-05-04T20:25:12.014Z,5.85
2023-05-04T20:30:13.916Z,6.28
2023-05-04T20:35:16.524Z,11.85
2023-05-04T20:40:18.379Z,5.95
2023-05-04T20:45:20.807Z,4.22
2023-05-04T20:50:23.149Z,9.07
2023-05-04T20:55:24.945Z,7.00
2023-05-04T21:00:27.205Z,6.75
2023-05-04T21:05:29.006Z,5.22
2023-05-04T21:10:30.876Z,7.60
2023-05-04T21:15:32.724Z,4.78
2023-05-04T21:20:34.509Z,6.30
2023-05-04T21:25:36.393Z,8.65
2023-05-04T21:30:42.957Z,9.00
2023-05-04T21:35:45.086Z,8.57
2023-05-04T21:40:46.977Z,6.75
2023-05-04T21:45:48.726Z,8.10
2023-05-04T21:50:50.490Z,6.88
2023-05-04T21:55:52.524Z,4.07
2023-05-04T22:00:55.329Z,4.40
2023-05-04T22:06:00.595Z,8.70
2023-05-04T22:11:02.548Z,6.28
2023-05-04T22:16:04.630Z,4.22
2023-05-04T22:21:06.591Z,4.28
2023-05-04T22:26:08.417Z,10.48
2023-05-04T22:31:10.506Z,6.93
2023-05-04T22:36:12.669Z,9.23
2023-05-04T22:41:15.083Z,4.03
2023-05-04T22:46:17.726Z,10.07
2023-05-04T22:51:19.508Z,37.72
2023-05-04T22:56:21.415Z,51.88
2023-05-04T23:01:23.558Z,40.63
2023-05-04T23:06:25.397Z,34.28
2023-05-04T23:11:27.292Z,25.38
2023-05-04T23:16:29.210Z,14.98
2023-05-04T23:21:31.553Z,11.82
2023-05-04T23:26:33.431Z,14.27
2023-05-04T23:31:35.256Z,9.25
2023-05-04T23:36:37.748Z,7.68
2023-05-04T23:41:39.539Z,14.80
2023-05-04T23:46:41.423Z,12.05
2023-05-04T23:51:43.349Z,8.52
2023-05-04T23:56:45.200Z,15.68
